createdAt,value
2022-09-26T00:00:37.013Z,962.55
2022-09-26T00:01:37.382Z,962.55
2022-09-26T00:02:37.712Z,962.50
2022-09-26T00:03:37.965Z,962.48
2022-09-26T00:04:38.197Z,962.47
2022-09-26T00:05:38.528Z,962.48
2022-09-26T00:06:38.854Z,962.50
2022-09-26T00:07:39.214Z,962.46
2022-09-26T00:08:39.427Z,962.52
2022-09-26T00:09:39.745Z,962.49
2022-09-26T00:10:40.048Z,962.50
2022-09-26T00:11:40.363Z,962.49
2022-09-26T00:12:44.464Z,962.50
2022-09-26T00:13:40.954Z,962.46
2022-09-26T00:14:41.283Z,962.47
2022-09-26T00:15:41.603Z,962.43
2022-09-26T00:16:42.018Z,962.43
2022-09-26T00:17:42.275Z,962.37
2022-09-26T00:18:42.477Z,962.42
2022-09-26T00:19:42.832Z,962.38
2022-09-26T00:20:43.040Z,962.36
2022-09-26T00:21:43.418Z,962.42
2022-09-26T00:22:43.622Z,962.44
2022-09-26T00:23:43.972Z,962.44
2022-09-26T00:24:44.188Z,962.41
2022-09-26T00:25:44.517Z,962.43
2022-09-26T00:26:44.863Z,962.43
2022-09-26T00:27:45.078Z,962.45
2022-09-26T00:28:45.393Z,962.43
2022-09-26T00:29:45.682Z,962.42
2022-09-26T00:30:46.080Z,962.38
2022-09-26T00:31:46.354Z,962.40
2022-09-26T00:32:46.587Z,962.38
2022-09-26T00:33:46.790Z,962.40
2022-09-26T00:34:47.122Z,962.40
2022-09-26T00:35:47.417Z,962.40
2022-09-26T00:36:47.786Z,962.40
2022-09-26T00:37:47.989Z,962.35
2022-09-26T00:38:48.308Z,962.35
2022-09-26T00:39:48.627Z,962.36
2022-09-26T00:40:49.046Z,962.34
2022-09-26T00:41:49.188Z,962.36
2022-09-26T00:42:49.397Z,962.35
2022-09-26T00:43:53.489Z,962.36
2022-09-26T00:44:50.009Z,962.34
2022-09-26T00:45:50.308Z,962.33
2022-09-26T00:46:50.510Z,962.28
2022-09-26T00:47:50.819Z,962.30
2022-09-26T00:48:51.147Z,962.27
2022-09-26T00:49:51.502Z,962.28
2022-09-26T00:50:51.724Z,962.25
2022-09-26T00:51:51.938Z,962.23
2022-09-26T02:56:25.510Z,961.55
2022-09-26T02:57:25.800Z,961.57
2022-09-26T02:58:26.041Z,961.57
2022-09-26T02:59:26.293Z,961.48
2022-09-26T03:00:26.564Z,961.53
2022-09-26T03:01:26.896Z,961.54
2022-09-26T03:02:27.076Z,961.51
2022-09-26T03:03:27.378Z,961.53
2022-09-26T03:04:27.586Z,961.54
2022-09-26T03:05:27.820Z,961.51
2022-09-26T03:06:28.078Z,961.55
2022-09-26T03:07:28.316Z,961.52
2022-09-26T03:08:28.569Z,961.53
2022-09-26T03:09:28.808Z,961.52
2022-09-26T03:10:29.036Z,961.57
2022-09-26T03:11:29.260Z,961.50
2022-09-26T03:12:29.588Z,961.53
2022-09-26T03:13:29.936Z,961.51
2022-09-26T03:14:30.150Z,961.49
2022-09-26T03:15:30.483Z,961.47
2022-09-26T03:16:30.865Z,961.46
2022-09-26T03:17:31.146Z,961.48
2022-09-26T03:18:31.518Z,961.45
2022-09-26T03:19:31.737Z,961.46
2022-09-26T03:20:32.101Z,961.48
2022-09-26T03:21:36.109Z,961.47
2022-09-26T03:22:32.598Z,961.53
2022-09-26T03:23:32.907Z,961.46
2022-09-26T03:24:33.205Z,961.44
2022-09-26T03:25:33.552Z,961.47
2022-09-26T03:26:33.770Z,961.44
2022-09-26T03:27:34.096Z,961.40
2022-09-26T03:28:37.828Z,961.41
2022-09-26T03:29:34.753Z,961.41
2022-09-26T03:30:35.112Z,961.37
2022-09-26T03:31:35.473Z,961.39
2022-09-26T03:32:35.609Z,961.37
2022-09-26T03:33:35.932Z,961.35
2022-09-26T03:34:36.262Z,961.36
2022-09-26T03:35:36.584Z,961.39
2022-09-26T03:36:36.949Z,961.37
2022-09-26T03:37:37.156Z,961.38
2022-09-26T03:38:37.481Z,961.34
2022-09-26T03:39:37.820Z,961.32
2022-09-26T03:40:38.222Z,961.35
2022-09-26T03:41:38.458Z,961.30
2022-09-26T03:42:38.806Z,961.28
2022-09-26T03:43:39.146Z,961.26
2022-09-26T03:44:39.352Z,961.25
2022-09-26T03:45:39.721Z,961.28
2022-09-26T03:46:40.360Z,961.27
2022-09-26T03:47:40.168Z,961.27
2022-09-26T03:48:40.377Z,961.26
2022-09-26T03:49:40.704Z,961.23
2022-09-26T03:50:41.024Z,961.20
2022-09-26T03:51:41.366Z,961.23
2022-09-26T03:52:41.705Z,961.18
2022-09-26T03:53:41.948Z,961.18
2022-09-26T03:54:42.157Z,961.17
2022-09-26T03:55:42.480Z,961.16
2022-09-26T03:56:42.799Z,961.15
2022-09-26T03:57:43.171Z,961.18
2022-09-26T03:58:43.427Z,961.10
2022-09-26T03:59:43.631Z,961.08
2022-09-26T04:00:43.983Z,961.10
2022-09-26T04:01:44.284Z,961.13
2022-09-26T04:02:44.571Z,961.08
2022-09-26T04:03:49.939Z,961.05
2022-09-26T04:04:46.054Z,961.06
2022-09-26T04:05:45.315Z,961.08
2022-09-26T04:06:45.659Z,961.05
2022-09-26T04:07:45.987Z,961.08
2022-09-26T04:08:46.356Z,961.00
2022-09-26T04:09:46.577Z,961.04
2022-09-26T04:10:46.888Z,961.00
2022-09-26T04:11:47.227Z,961.01
2022-09-26T04:12:47.551Z,961.01
2022-09-26T04:13:52.884Z,960.97
2022-09-26T04:14:49.206Z,960.97
2022-09-26T04:15:48.508Z,960.98
2022-09-26T04:16:48.763Z,960.98
2022-09-26T04:17:49.028Z,960.95
2022-09-26T04:18:49.358Z,960.97
2022-09-26T04:19:49.686Z,960.92
2022-09-26T04:20:50.051Z,960.89
2022-09-26T04:21:50.269Z,960.86
2022-09-26T04:22:50.591Z,960.87
2022-09-26T04:23:50.920Z,960.87
2022-09-26T04:24:51.260Z,960.87
2022-09-26T04:25:51.467Z,960.86
2022-09-26T04:26:51.815Z,960.85
2022-09-26T04:27:52.025Z,960.79
2022-09-26T04:28:52.409Z,960.81
2022-09-26T04:29:52.606Z,960.79
2022-09-26T04:30:52.950Z,960.77
2022-09-26T04:31:53.349Z,960.77
2022-09-26T04:32:53.588Z,960.76
2022-09-26T04:33:53.917Z,960.76
2022-09-26T04:34:54.247Z,960.77
2022-09-26T04:35:54.599Z,960.73
2022-09-26T04:36:54.818Z,960.72
2022-09-26T04:37:55.137Z,960.72
2022-09-26T04:38:55.494Z,960.71
2022-09-26T04:39:55.722Z,960.72
2022-09-26T04:40:56.130Z,960.69
2022-09-26T04:41:56.386Z,960.69
2022-09-26T04:42:56.714Z,960.66
2022-09-26T04:43:57.077Z,960.66
2022-09-26T04:44:57.336Z,960.63
2022-09-26T04:45:57.569Z,960.62
2022-09-26T04:46:57.858Z,960.62
2022-09-26T04:47:58.066Z,960.60
2022-09-26T04:48:58.399Z,960.54
2022-09-26T04:49:58.742Z,960.58
2022-09-26T04:50:59.103Z,960.55
2022-09-26T04:51:59.365Z,960.56
2022-09-26T04:52:59.584Z,960.58
2022-09-26T04:53:59.913Z,960.57
2022-09-26T04:55:00.258Z,960.53
2022-09-26T04:56:00.575Z,960.51
2022-09-26T04:57:00.929Z,960.50
2022-09-26T04:58:01.167Z,960.52
2022-09-26T04:59:01.382Z,960.51
2022-09-26T05:00:01.716Z,960.53
2022-09-26T05:01:02.049Z,960.51
2022-09-26T05:02:02.399Z,960.49
2022-09-26T05:03:02.536Z,960.48
2022-09-26T05:04:02.856Z,960.49
2022-09-26T05:05:03.210Z,960.50
2022-09-26T05:06:03.407Z,960.47
2022-09-26T05:07:03.781Z,960.45
2022-09-26T05:08:03.983Z,960.44
2022-09-26T05:09:04.328Z,960.42
2022-09-26T05:10:04.543Z,960.41
2022-09-26T05:11:04.753Z,960.41
2022-09-26T05:12:05.085Z,960.39
2022-09-26T05:13:05.463Z,960.34
2022-09-26T05:14:05.681Z,960.37
2022-09-26T05:15:06.010Z,960.41
2022-09-26T05:16:06.407Z,960.41
2022-09-26T05:17:06.623Z,960.39
2022-09-26T05:18:06.952Z,960.34
2022-09-26T05:19:07.160Z,960.40
2022-09-26T05:20:07.540Z,960.37
2022-09-26T05:21:07.745Z,960.37
2022-09-26T05:22:08.052Z,960.36
2022-09-26T05:23:08.369Z,960.36
2022-09-26T05:24:08.710Z,960.37
2022-09-26T05:25:08.917Z,960.36
2022-09-26T05:26:09.250Z,960.36
2022-09-26T05:27:09.583Z,960.40
2022-09-26T05:28:09.927Z,960.39
2022-09-26T05:29:10.448Z,960.39
2022-09-26T05:30:10.389Z,960.39
2022-09-26T05:31:10.744Z,960.41
2022-09-26T05:32:11.006Z,960.42
2022-09-26T05:33:11.205Z,960.40
2022-09-26T05:34:15.710Z,960.35
2022-09-26T05:35:12.887Z,960.39
2022-09-26T05:36:12.191Z,960.34
2022-09-26T05:37:12.430Z,960.37
2022-09-26T05:38:12.761Z,960.39
2022-09-26T05:39:13.148Z,960.34
2022-09-26T05:40:13.445Z,960.35
2022-09-26T05:41:13.579Z,960.35
2022-09-26T05:42:13.918Z,960.32
2022-09-26T05:43:14.244Z,960.28
2022-09-26T05:44:14.598Z,960.24
2022-09-26T05:45:14.853Z,960.25
2022-09-26T05:46:15.118Z,960.24
2022-09-26T05:47:15.431Z,960.21
2022-09-26T05:48:15.651Z,960.23
2022-09-26T05:49:16.055Z,960.24
2022-09-26T05:50:16.309Z,960.27
2022-09-26T05:51:16.522Z,960.29
2022-09-26T05:52:16.856Z,960.28
2022-09-26T05:53:17.102Z,960.28
2022-09-26T05:54:17.302Z,960.29
2022-09-26T05:55:17.661Z,960.28
2022-09-26T05:56:19.337Z,960.29
2022-09-26T05:57:18.132Z,960.33
2022-09-26T05:58:18.585Z,960.31
2022-09-26T05:59:18.703Z,960.30
2022-09-26T06:00:19.032Z,960.32
2022-09-26T06:01:19.353Z,960.29
2022-09-26T06:02:21.067Z,960.29
2022-09-26T06:03:19.781Z,960.35
2022-09-26T06:04:20.218Z,960.35
2022-09-26T06:05:20.343Z,960.34
2022-09-26T06:06:20.677Z,960.33
2022-09-26T06:07:21.052Z,960.36
2022-09-26T06:08:21.264Z,960.35
2022-09-26T06:09:21.602Z,960.36
2022-09-26T06:10:21.937Z,960.36
2022-09-26T06:11:22.267Z,960.39
2022-09-26T06:12:22.627Z,960.32
2022-09-26T06:13:22.863Z,960.33
2022-09-26T06:14:23.076Z,960.34
2022-09-26T06:15:23.403Z,960.33
2022-09-26T06:16:23.806Z,960.39
2022-09-26T06:17:24.062Z,960.34
2022-09-26T06:18:24.417Z,960.34
2022-09-26T06:19:24.830Z,960.37
2022-09-26T06:20:24.907Z,960.32
2022-09-26T06:21:25.231Z,960.30
2022-09-26T06:22:25.561Z,960.29
2022-09-26T06:23:25.914Z,960.34
2022-09-26T06:24:26.122Z,960.30
2022-09-26T06:25:26.446Z,960.31
2022-09-26T06:26:26.750Z,960.32
2022-09-26T06:27:27.088Z,960.37
2022-09-26T06:28:27.447Z,960.35
2022-09-26T06:29:27.649Z,960.31
2022-09-26T06:30:28.074Z,960.27
2022-09-26T06:31:28.305Z,960.26
2022-09-26T06:32:28.471Z,960.34
2022-09-26T06:33:33.151Z,960.30
2022-09-26T06:34:29.022Z,960.28
2022-09-26T06:35:29.224Z,960.34
2022-09-26T06:36:29.544Z,960.31
2022-09-26T06:37:29.881Z,960.28
2022-09-26T06:38:30.231Z,960.33
2022-09-26T06:39:30.454Z,960.35
2022-09-26T06:40:30.803Z,960.34
2022-09-26T06:41:31.061Z,960.34
2022-09-26T06:42:31.277Z,960.28
2022-09-26T06:43:31.608Z,960.29
2022-09-26T06:44:31.941Z,960.27
2022-09-26T06:45:32.276Z,960.30
2022-09-26T06:46:32.698Z,960.33
2022-09-26T06:47:32.823Z,960.31
2022-09-26T06:48:33.121Z,960.28
2022-09-26T06:49:33.461Z,960.29
2022-09-26T06:50:33.808Z,960.28
2022-09-26T06:51:34.076Z,960.26
2022-09-26T06:52:34.286Z,960.18
2022-09-26T06:53:34.618Z,960.16
2022-09-26T06:54:34.954Z,960.18
2022-09-26T06:55:35.271Z,960.21
2022-09-26T06:56:35.626Z,960.17
2022-09-26T06:57:35.838Z,960.18
2022-09-26T06:58:36.169Z,960.13
2022-09-26T06:59:36.546Z,960.15
2022-09-26T07:00:36.948Z,960.14
2022-09-26T07:01:37.092Z,960.20
2022-09-26T07:02:37.366Z,960.14
2022-09-26T07:03:41.643Z,960.11
2022-09-26T07:04:39.032Z,960.17
2022-09-26T07:05:38.298Z,960.17
2022-09-26T07:06:38.671Z,960.13
2022-09-26T07:07:38.910Z,960.16
2022-09-26T07:09:00.944Z,960.18
2022-09-26T07:09:40.365Z,960.06
2022-09-26T07:10:39.675Z,960.09
2022-09-26T07:12:02.770Z,960.09
2022-09-26T07:12:41.245Z,960.09
2022-09-26T07:13:40.540Z,960.07
2022-09-26T07:14:40.752Z,960.06
2022-09-26T07:15:41.142Z,960.08
2022-09-26T07:16:41.518Z,960.11
2022-09-26T07:17:41.632Z,960.15
2022-09-26T07:18:41.957Z,960.13
2022-09-26T07:19:42.159Z,960.17
2022-09-26T07:20:42.473Z,960.18
2022-09-26T07:21:42.806Z,960.17
2022-09-26T07:22:43.126Z,960.16
2022-09-26T07:23:43.512Z,960.16
2022-09-26T07:24:43.737Z,960.18
2022-09-26T07:25:44.052Z,960.09
2022-09-26T07:26:44.356Z,960.17
2022-09-26T07:27:44.684Z,960.19
2022-09-26T07:28:45.053Z,960.19
2022-09-26T07:29:45.241Z,960.21
2022-09-26T07:30:45.610Z,960.16
2022-09-26T07:31:45.913Z,960.18
2022-09-26T07:32:46.151Z,960.19
2022-09-26T07:33:46.389Z,960.19
2022-09-26T07:34:46.603Z,960.30
2022-09-26T07:35:46.942Z,960.20
2022-09-26T07:36:47.280Z,960.30
2022-09-26T07:37:47.614Z,960.28
2022-09-26T07:38:47.964Z,960.27
2022-09-26T07:39:51.311Z,960.22
2022-09-26T07:40:49.513Z,960.25
2022-09-26T07:41:48.830Z,960.25
2022-09-26T07:43:04.221Z,960.22
2022-09-26T07:45:21.837Z,960.15
2022-09-26T07:45:50.864Z,960.24
2022-09-26T07:46:50.215Z,960.20
2022-09-26T07:47:50.504Z,960.25
2022-09-26T07:48:50.691Z,960.24
2022-09-26T07:49:51.045Z,960.29
2022-09-26T07:50:51.258Z,960.27
2022-09-26T07:51:51.577Z,960.22
2022-09-26T07:52:51.911Z,960.25
2022-09-26T07:53:52.124Z,960.27
2022-09-26T07:54:52.484Z,960.29
2022-09-26T07:55:52.676Z,960.25
2022-09-26T07:56:53.005Z,960.28
2022-09-26T07:57:53.283Z,960.24
2022-09-26T07:58:53.611Z,960.31
2022-09-26T07:59:53.961Z,960.28
2022-09-26T08:00:55.136Z,960.26
2022-09-26T08:01:54.570Z,960.24
2022-09-26T08:02:54.704Z,960.25
2022-09-26T08:03:54.933Z,960.24
2022-09-26T08:05:00.232Z,960.24
2022-09-26T08:05:56.624Z,960.22
2022-09-26T08:06:55.895Z,960.23
2022-09-26T08:07:56.218Z,960.21
2022-09-26T08:08:56.542Z,960.20
2022-09-26T08:09:56.876Z,960.25
2022-09-26T08:11:02.840Z,960.17
2022-09-26T08:11:58.451Z,960.20
2022-09-26T08:12:57.715Z,960.16
2022-09-26T08:13:58.034Z,960.13
2022-09-26T08:14:58.374Z,960.13
2022-09-26T08:15:58.791Z,960.11
2022-09-26T08:16:59.027Z,960.12
2022-09-26T08:17:59.385Z,960.10
2022-09-26T08:18:59.594Z,960.03
2022-09-26T08:19:59.916Z,960.08
2022-09-26T08:21:00.262Z,960.14
2022-09-26T08:22:00.494Z,960.16
2022-09-26T08:23:00.737Z,960.14
2022-09-26T08:24:00.950Z,960.13
2022-09-26T08:25:01.197Z,960.12
2022-09-26T08:26:01.391Z,960.12
2022-09-26T08:27:01.705Z,960.15
2022-09-26T08:28:02.026Z,960.18
2022-09-26T08:29:02.328Z,960.16
2022-09-26T08:30:02.691Z,960.16
2022-09-26T08:31:03.029Z,960.16
2022-09-26T08:32:03.166Z,960.16
2022-09-26T08:33:03.506Z,960.10
2022-09-26T08:34:03.713Z,960.20
2022-09-26T08:35:04.042Z,960.14
2022-09-26T08:36:04.254Z,960.16
2022-09-26T08:37:04.578Z,960.28
2022-09-26T08:38:04.945Z,960.19
2022-09-26T08:39:05.168Z,960.20
2022-09-26T08:40:05.389Z,960.25
2022-09-26T08:41:05.777Z,960.18
2022-09-26T08:42:06.037Z,960.30
2022-09-26T08:43:06.274Z,960.19
2022-09-26T08:44:06.519Z,960.23
2022-09-26T08:45:06.781Z,960.19
2022-09-26T08:46:07.187Z,960.15
2022-09-26T08:47:07.332Z,960.20
2022-09-26T08:48:07.662Z,960.24
2022-09-26T08:49:07.970Z,960.24
2022-09-26T08:50:08.294Z,960.18
2022-09-26T08:51:08.657Z,960.18
2022-09-26T08:52:08.851Z,960.15
2022-09-26T08:53:09.180Z,960.12
2022-09-26T08:54:09.571Z,960.26
2022-09-26T08:55:09.862Z,960.16
2022-09-26T08:56:10.093Z,960.20
2022-09-26T08:57:10.303Z,960.15
2022-09-26T08:58:10.627Z,960.16
2022-09-26T08:59:10.935Z,960.14
2022-09-26T09:00:11.321Z,960.16
2022-09-26T09:01:11.556Z,960.16
2022-09-26T09:02:11.902Z,960.17
2022-09-26T09:03:12.170Z,960.17
2022-09-26T09:04:12.511Z,960.13
2022-09-26T09:05:12.733Z,960.15
2022-09-26T09:06:13.101Z,960.15
2022-09-26T09:07:13.319Z,960.10
2022-09-26T09:08:13.627Z,960.09
2022-09-26T09:09:13.982Z,960.06
2022-09-26T09:10:14.188Z,960.02
2022-09-26T09:11:14.543Z,960.04
2022-09-26T09:12:14.740Z,960.05
2022-09-26T09:13:15.044Z,960.06
2022-09-26T09:14:15.474Z,960.08
2022-09-26T09:15:25.042Z,960.12
2022-09-26T09:16:17.117Z,960.05
2022-09-26T09:17:16.228Z,960.07
2022-09-26T09:18:16.547Z,960.06
2022-09-26T09:19:16.816Z,960.08
2022-09-26T09:20:17.033Z,960.14
2022-09-26T09:21:17.357Z,960.09
2022-09-26T09:22:17.701Z,960.04
2022-09-26T09:23:17.905Z,960.12
2022-09-26T09:24:18.290Z,960.09
2022-09-26T09:25:18.482Z,960.10
2022-09-26T09:28:20.339Z,960.16
2022-09-26T09:29:19.622Z,960.12
2022-09-26T09:30:19.923Z,960.07
2022-09-26T09:31:22.016Z,960.05
2022-09-26T09:32:20.430Z,960.10
2022-09-26T09:33:20.800Z,960.08
2022-09-26T09:34:20.996Z,960.07
2022-09-26T09:35:21.312Z,960.10
2022-09-26T09:36:21.619Z,960.10
2022-09-26T09:37:21.921Z,960.07
2022-09-26T09:38:22.271Z,960.04
2022-09-26T09:39:22.515Z,960.00
2022-09-26T09:40:22.800Z,959.97
2022-09-26T09:41:23.040Z,960.11
2022-09-26T09:42:23.365Z,960.00
2022-09-26T09:43:23.739Z,960.04
2022-09-26T09:44:23.987Z,959.98
2022-09-26T09:45:24.261Z,960.00
2022-09-26T09:46:24.520Z,959.96
2022-09-26T09:47:24.778Z,959.79
2022-09-26T09:48:24.985Z,959.76
2022-09-26T09:49:25.305Z,959.82
2022-09-26T09:50:25.664Z,959.78
2022-09-26T09:51:25.865Z,959.74
2022-09-26T09:52:26.199Z,959.76
2022-09-26T09:53:27.294Z,959.74
2022-09-26T09:54:26.792Z,959.73
2022-09-26T09:55:27.129Z,959.65
2022-09-26T09:56:27.444Z,959.67
2022-09-26T09:57:27.765Z,959.71
2022-09-26T09:58:28.856Z,959.63
2022-09-26T09:59:28.340Z,959.82
2022-09-26T10:00:28.629Z,959.65
2022-09-26T10:01:28.961Z,959.61
2022-09-26T10:02:29.325Z,959.64
2022-09-26T10:03:29.549Z,959.60
2022-09-26T10:04:29.866Z,959.64
2022-09-26T10:05:30.167Z,959.63
2022-09-26T10:06:44.410Z,959.64
2022-09-26T10:07:31.811Z,959.47
2022-09-26T10:08:31.076Z,959.47
2022-09-26T10:09:36.472Z,959.41
2022-09-26T10:10:32.718Z,959.42
2022-09-26T10:11:32.024Z,959.40
2022-09-26T10:12:32.222Z,959.51
2022-09-26T10:13:32.526Z,959.57
2022-09-26T10:14:32.847Z,959.36
2022-09-26T10:15:33.187Z,959.31
2022-09-26T10:16:33.585Z,959.32
2022-09-26T10:17:33.708Z,959.32
2022-09-26T10:18:34.002Z,959.34
2022-09-26T10:19:36.119Z,959.33
2022-09-26T10:20:34.630Z,959.33
2022-09-26T10:21:34.964Z,959.32
2022-09-26T10:22:35.276Z,959.32
2022-09-26T10:23:35.591Z,959.28
2022-09-26T10:24:35.904Z,959.30
2022-09-26T10:25:36.233Z,959.23
2022-09-26T10:26:36.542Z,959.29
2022-09-26T10:27:37.006Z,959.32
2022-09-26T10:28:37.148Z,959.17
2022-09-26T10:29:37.504Z,959.30
2022-09-26T10:30:37.686Z,959.21
2022-09-26T10:31:42.317Z,959.24
2022-09-26T10:32:38.267Z,959.21
2022-09-26T10:33:38.628Z,959.26
2022-09-26T10:34:59.892Z,959.22
2022-09-26T10:35:39.087Z,959.22
2022-09-26T10:36:39.372Z,959.18
2022-09-26T10:37:39.685Z,959.25
2022-09-26T10:38:39.988Z,959.14
2022-09-26T10:39:40.301Z,959.19
2022-09-26T10:40:40.663Z,959.15
2022-09-26T10:41:40.919Z,959.12
2022-09-26T10:42:41.216Z,959.28
2022-09-26T10:43:41.522Z,959.28
2022-09-26T10:44:41.819Z,959.29
2022-09-26T10:45:42.134Z,959.11
2022-09-26T10:46:42.541Z,959.16
2022-09-26T10:47:42.761Z,959.12
2022-09-26T10:48:43.063Z,959.16
2022-09-26T10:49:43.368Z,959.21
2022-09-26T10:50:43.691Z,959.06
2022-09-26T10:51:44.041Z,959.12
2022-09-26T10:52:44.338Z,959.27
2022-09-26T10:53:44.654Z,959.26
2022-09-26T10:54:44.976Z,959.09
2022-09-26T10:55:45.300Z,959.24
2022-09-26T10:56:45.640Z,959.19
2022-09-26T10:57:45.853Z,959.09
2022-09-26T10:58:46.160Z,959.09
2022-09-26T10:59:46.464Z,959.07
2022-09-26T11:00:46.767Z,959.00
2022-09-26T11:01:47.185Z,959.05
2022-09-26T11:02:47.310Z,959.01
2022-09-26T11:03:47.740Z,959.11
2022-09-26T11:04:47.860Z,959.09
2022-09-26T11:05:48.180Z,959.03
2022-09-26T11:06:48.520Z,958.93
2022-09-26T11:07:48.722Z,958.91
2022-09-26T11:08:49.021Z,958.94
2022-09-26T11:09:49.319Z,958.99
2022-09-26T11:10:49.613Z,959.08
2022-09-26T11:11:49.952Z,958.93
2022-09-26T11:12:50.260Z,958.78
2022-09-26T11:13:50.578Z,958.82
2022-09-26T11:14:50.895Z,958.77
2022-09-26T11:15:51.256Z,958.81
2022-09-26T11:16:51.514Z,958.81
2022-09-26T11:17:51.853Z,958.72
2022-09-26T11:18:52.060Z,958.92
2022-09-26T11:19:54.854Z,958.87
2022-09-26T11:20:52.643Z,958.87
2022-09-26T11:21:52.936Z,958.90
2022-09-26T11:22:53.257Z,958.72
2022-09-26T11:23:53.604Z,958.87
2022-09-26T11:24:53.807Z,958.85
2022-09-26T11:25:57.726Z,958.62
2022-09-26T11:26:54.465Z,958.66
2022-09-26T11:27:54.672Z,958.58
2022-09-26T11:28:54.968Z,958.52
2022-09-26T11:29:55.133Z,958.68
2022-09-26T11:30:55.519Z,958.62
2022-09-26T11:32:00.040Z,958.61
2022-09-26T11:32:55.993Z,958.50
2022-09-26T11:33:56.298Z,958.49
2022-09-26T11:34:56.601Z,958.44
2022-09-26T11:35:56.890Z,958.53
2022-09-26T11:36:57.234Z,958.49
2022-09-26T11:37:57.436Z,958.42
2022-09-26T11:38:57.759Z,958.40
2022-09-26T11:39:58.078Z,958.39
2022-09-26T11:41:00.207Z,958.34
2022-09-26T11:41:58.653Z,958.29
2022-09-26T11:42:58.981Z,958.35
2022-09-26T11:43:59.314Z,958.28
2022-09-26T11:44:59.620Z,958.31
2022-09-26T11:45:59.932Z,958.27
2022-09-26T11:47:00.274Z,958.28
2022-09-26T11:48:00.492Z,958.31
2022-09-26T11:49:00.790Z,958.27
2022-09-26T11:50:01.095Z,958.29
2022-09-26T11:51:01.390Z,958.29
2022-09-26T11:52:01.708Z,958.20
2022-09-26T11:53:02.041Z,958.16
2022-09-26T11:54:02.340Z,958.15
2022-09-26T11:55:02.660Z,958.12
2022-09-26T11:56:02.947Z,958.15
2022-09-26T11:57:03.266Z,958.13
2022-09-26T11:58:04.028Z,958.14
2022-09-26T11:59:03.873Z,958.10
2022-09-26T12:00:04.170Z,958.09
2022-09-26T12:01:04.470Z,958.07
2022-09-26T12:02:04.769Z,958.04
2022-09-26T12:03:05.233Z,957.98
2022-09-26T12:04:05.541Z,958.03
2022-09-26T12:05:05.636Z,958.01
2022-09-26T12:06:05.953Z,958.00
2022-09-26T12:07:06.276Z,957.96
2022-09-26T12:08:10.455Z,957.91
2022-09-26T12:09:06.832Z,957.90
2022-09-26T12:10:07.145Z,957.86
2022-09-26T12:11:07.445Z,957.89
2022-09-26T12:12:11.591Z,957.83
2022-09-26T12:13:08.073Z,957.82
2022-09-26T12:14:08.409Z,957.82
2022-09-26T12:15:08.711Z,957.77
2022-09-26T12:16:09.103Z,957.75
2022-09-26T12:17:09.349Z,957.72
2022-09-26T12:18:09.641Z,957.67
2022-09-26T12:19:15.584Z,957.65
2022-09-26T12:20:14.901Z,957.64
2022-09-26T12:21:10.430Z,957.57
2022-09-26T12:22:10.752Z,957.62
2022-09-26T12:23:11.073Z,957.60
2022-09-26T12:24:11.372Z,957.56
2022-09-26T12:25:13.047Z,957.56
2022-09-26T12:26:11.894Z,957.60
2022-09-26T12:27:12.272Z,957.58
2022-09-26T12:28:12.475Z,957.58
2022-09-26T12:29:12.831Z,957.53
2022-09-26T12:30:13.017Z,957.50
2022-09-26T12:31:18.667Z,957.47
2022-09-26T12:32:14.650Z,957.44
2022-09-26T12:33:13.898Z,957.37
2022-09-26T12:34:14.354Z,957.42
2022-09-26T12:35:14.469Z,957.45
2022-09-26T12:36:18.488Z,957.42
2022-09-26T12:37:15.073Z,957.41
2022-09-26T12:38:16.151Z,957.42
2022-09-26T12:39:17.464Z,957.41
2022-09-26T12:40:15.956Z,957.36
2022-09-26T12:41:17.899Z,957.38
2022-09-26T12:42:16.434Z,957.32
2022-09-26T12:43:16.737Z,957.36
2022-09-26T12:44:17.010Z,957.27
2022-09-26T12:45:17.359Z,957.25
2022-09-26T12:46:17.702Z,957.27
2022-09-26T12:47:17.909Z,957.27
2022-09-26T12:48:18.228Z,957.51
2022-09-26T12:49:18.565Z,957.48
2022-09-26T12:50:18.923Z,957.48
2022-09-26T12:51:19.130Z,957.40
2022-09-26T12:52:22.520Z,957.45
2022-09-26T12:53:20.745Z,957.45
2022-09-26T12:54:20.011Z,957.35
2022-09-26T12:55:20.376Z,957.48
2022-09-26T12:56:20.582Z,957.43
2022-09-26T12:57:20.917Z,957.22
2022-09-26T12:58:21.251Z,957.41
2022-09-26T12:59:21.563Z,957.16
2022-09-26T13:00:21.867Z,957.35
2022-09-26T13:01:22.309Z,957.30
2022-09-26T13:02:22.599Z,957.26
2022-09-26T13:03:22.840Z,957.11
2022-09-26T13:04:23.047Z,957.15
2022-09-26T13:05:23.391Z,957.18
2022-09-26T13:06:23.699Z,957.19
2022-09-26T13:07:24.029Z,957.18
2022-09-26T13:08:24.351Z,957.18
2022-09-26T13:09:24.700Z,957.15
2022-09-26T13:10:25.050Z,957.14
2022-09-26T13:11:27.357Z,957.07
2022-09-26T13:12:26.541Z,957.06
2022-09-26T13:13:25.814Z,957.05
2022-09-26T13:14:26.028Z,956.87
2022-09-26T13:15:26.423Z,956.97
2022-09-26T13:16:26.750Z,957.00
2022-09-26T13:17:26.868Z,957.01
2022-09-26T13:18:28.973Z,956.95
2022-09-26T13:19:27.475Z,956.88
2022-09-26T13:20:27.769Z,956.83
2022-09-26T13:21:28.122Z,956.84
2022-09-26T13:22:28.317Z,956.77
2022-09-26T13:23:28.615Z,956.82
2022-09-26T13:24:28.897Z,956.77
2022-09-26T13:25:29.201Z,956.59
2022-09-26T13:26:29.549Z,956.64
2022-09-26T13:27:29.853Z,956.73
2022-09-26T13:28:30.243Z,956.56
2022-09-26T13:29:30.804Z,956.71
2022-09-26T13:30:30.688Z,956.69
2022-09-26T13:31:32.662Z,956.68
2022-09-26T13:32:31.275Z,956.66
2022-09-26T13:33:31.616Z,956.65
2022-09-26T13:34:31.842Z,956.63
2022-09-26T13:35:32.140Z,956.53
2022-09-26T13:36:32.434Z,956.49
2022-09-26T13:37:32.723Z,956.42
2022-09-26T13:38:33.036Z,956.53
2022-09-26T13:39:33.315Z,956.40
2022-09-26T13:40:34.335Z,956.45
2022-09-26T13:41:35.632Z,956.42
2022-09-26T13:42:34.116Z,956.41
2022-09-26T13:43:34.408Z,956.46
2022-09-26T13:44:34.733Z,956.41
2022-09-26T13:45:35.052Z,956.41
2022-09-26T13:46:35.388Z,956.44
2022-09-26T13:47:35.623Z,956.38
2022-09-26T13:48:35.922Z,956.31
2022-09-26T13:49:36.225Z,956.29
2022-09-26T13:50:36.549Z,956.36
2022-09-26T13:51:40.273Z,956.38
2022-09-26T13:52:37.145Z,956.33
2022-09-26T13:53:37.436Z,956.35
2022-09-26T13:54:37.714Z,956.34
2022-09-26T13:55:38.057Z,956.32
2022-09-26T13:56:38.336Z,956.33
2022-09-26T13:57:38.628Z,956.34
2022-09-26T13:58:38.917Z,956.35
2022-09-26T13:59:39.230Z,956.34
2022-09-26T14:00:39.564Z,956.36
2022-09-26T14:01:39.922Z,956.34
2022-09-26T14:02:40.158Z,956.37
2022-09-26T14:03:40.460Z,956.32
2022-09-26T14:04:40.796Z,956.37
2022-09-26T14:05:41.098Z,956.38
2022-09-26T14:06:41.395Z,956.36
2022-09-26T14:07:41.695Z,956.37
2022-09-26T14:08:41.973Z,956.30
2022-09-26T14:09:42.301Z,956.23
2022-09-26T14:10:42.495Z,956.36
2022-09-26T14:11:42.799Z,956.34
2022-09-26T14:12:43.101Z,956.33
2022-09-26T14:13:43.396Z,956.40
2022-09-26T14:14:43.744Z,956.43
2022-09-26T14:15:44.114Z,956.51
2022-09-26T14:16:44.326Z,956.49
2022-09-26T14:17:44.651Z,956.46
2022-09-26T14:18:45.004Z,956.45
2022-09-26T14:19:45.197Z,956.47
2022-09-26T14:20:45.535Z,956.42
2022-09-26T14:21:47.669Z,956.49
2022-09-26T14:22:46.292Z,956.45
2022-09-26T14:23:46.310Z,956.56
2022-09-26T14:24:46.655Z,956.47
2022-09-26T14:25:46.963Z,956.48
2022-09-26T14:26:47.274Z,956.42
2022-09-26T14:27:47.575Z,956.42
2022-09-26T14:28:47.899Z,956.38
2022-09-26T14:29:48.227Z,956.43
2022-09-26T14:30:48.570Z,956.43
2022-09-26T14:31:48.780Z,956.38
2022-09-26T14:32:49.008Z,956.41
2022-09-26T14:33:49.316Z,956.34
2022-09-26T14:34:49.630Z,956.36
2022-09-26T14:35:49.935Z,956.37
2022-09-26T14:36:50.330Z,956.33
2022-09-26T14:37:50.523Z,956.35
2022-09-26T14:38:50.849Z,956.34